WI64 weather

Iola Emergency Heliport
Iola, Wisconsin, United States

Public forecast

Using degrees Fahrenheit for public forecast. Weather courtesy of forecast.io.

METAR (pilot weather report)

Closest report is Waupaca Municipal Airport, 11.6 nm (21.4 km) SSE. Retrieved 2019/08/18 01:35 UTC (12 minutes ago):

KPCZ 180135Z AUTO 00000KT 10SM CLR 21/19 A2984 RMK AO2 T02070191

TAF (pilot weather forecast)

Forecast is more than 12 hours old.

Closest forecast is Central Wisconsin Airport, 27.9 nm (51.7 km) NW. Retrieved 2019/08/17 00:36 UTC (1 day ago):

TAF KCWA 172333Z 1800/1824 17005KT P6SM BKN250 FM180700 13005KT 5SM BR VCSH BKN080 TEMPO 1808/1812 3SM -TSRA BR SCT009 BKN015CB FM181200 14009KT 3SM -SHRA BR BKN006 WS015/19035KT FM181600 21009G15KT 5SM -SHRA BKN008 FM182000 23014G23KT P6SM BKN025